createdAt,value
2018-02-08T00:01:17.799Z,86.90
2018-02-08T00:03:48.810Z,86.00
2018-02-08T00:06:20.854Z,84.40
2018-02-08T00:08:51.837Z,84.40
2018-02-08T00:11:22.645Z,82.20
2018-02-08T00:13:54.303Z,81.70
2018-02-08T00:16:25.961Z,81.50
2018-02-08T00:18:57.607Z,80.40
2018-02-08T00:21:28.425Z,80.30
2018-02-08T00:23:59.397Z,79.20
2018-02-08T00:26:30.993Z,78.80
2018-02-08T00:29:02.021Z,78.70
2018-02-08T00:31:33.022Z,74.70
2018-02-08T00:34:04.663Z,70.20
2018-02-08T00:36:35.617Z,70.20
2018-02-08T00:39:07.398Z,68.60
2018-02-08T00:41:38.205Z,68.60
2018-02-08T00:44:09.867Z,69.10
2018-02-08T00:46:40.809Z,68.20
2018-02-08T00:49:12.454Z,64.20
2018-02-08T00:51:43.403Z,64.10
2018-02-08T00:54:14.948Z,63.80
2018-02-08T00:56:46.500Z,63.30
2018-02-08T00:59:18.021Z,61.90
2018-02-08T01:01:49.831Z,61.90
2018-02-08T01:04:21.573Z,59.90
2018-02-08T01:06:53.029Z,59.40
2018-02-08T01:09:24.523Z,60.90
2018-02-08T01:11:55.243Z,60.90
2018-02-08T01:14:26.265Z,65.50
2018-02-08T01:16:57.791Z,66.60
2018-02-08T01:19:28.614Z,66.60
2018-02-08T01:21:59.554Z,69.10
2018-02-08T01:24:30.405Z,67.00
2018-02-08T01:27:01.109Z,67.30
2018-02-08T01:29:32.003Z,67.60
2018-02-08T01:32:02.957Z,67.10
2018-02-08T01:34:33.963Z,67.70
2018-02-08T01:37:05.661Z,66.90
2018-02-08T01:39:36.585Z,66.80
2018-02-08T01:42:07.907Z,65.70
2018-02-08T01:44:39.450Z,65.00
2018-02-08T01:47:10.266Z,64.90
2018-02-08T01:49:48.182Z,64.10
2018-02-08T01:52:18.959Z,63.70
2018-02-08T01:54:49.981Z,64.80
2018-02-08T01:57:22.742Z,63.40
2018-02-08T01:59:53.883Z,63.30
2018-02-08T02:02:24.838Z,63.90
2018-02-08T02:04:56.739Z,65.00
2018-02-08T02:07:27.584Z,65.00
2018-02-08T02:09:58.450Z,64.70
2018-02-08T02:12:29.410Z,65.60
2018-02-08T02:15:00.936Z,63.30
2018-02-08T02:17:31.675Z,63.30
2018-02-08T02:20:03.406Z,64.20
2018-02-08T02:25:09.501Z,64.90
2018-02-08T02:27:40.899Z,66.00
2018-02-08T02:30:11.857Z,64.60
2018-02-08T02:32:42.666Z,65.10
2018-02-08T02:35:14.398Z,64.20
2018-02-08T02:37:45.438Z,64.10
2018-02-08T02:40:17.201Z,63.40
2018-02-08T02:42:47.859Z,63.30
2018-02-08T02:45:18.713Z,63.50
2018-02-08T02:47:49.577Z,64.50
2018-02-08T02:50:20.431Z,63.20
2018-02-08T02:52:51.174Z,63.40
2018-02-08T02:55:22.229Z,63.10
2018-02-08T02:57:54.104Z,62.20
2018-02-08T03:00:25.095Z,62.20
2018-02-08T03:02:55.561Z,63.60
2018-02-08T03:05:27.842Z,63.20
2018-02-08T03:07:59.602Z,64.20
2018-02-08T03:10:30.441Z,63.40
2018-02-08T03:13:01.459Z,63.30
2018-02-08T03:15:33.331Z,61.60
2018-02-08T03:18:05.002Z,61.60
2018-02-08T03:20:36.033Z,61.60
2018-02-08T03:23:07.596Z,64.80
2018-02-08T03:25:39.122Z,64.80
2018-02-08T03:28:10.863Z,63.60
2018-02-08T03:30:43.880Z,63.50
2018-02-08T03:33:15.319Z,62.90
2018-02-08T03:35:46.987Z,62.40
2018-02-08T03:38:18.559Z,63.60
2018-02-08T03:40:49.308Z,63.60
2018-02-08T03:43:20.175Z,64.50
2018-02-08T03:45:51.735Z,64.00
2018-02-08T03:48:22.717Z,64.00
2018-02-08T03:50:53.546Z,64.00
2018-02-08T03:53:25.275Z,63.10
2018-02-08T03:55:56.309Z,63.00
2018-02-08T03:58:27.110Z,62.70
2018-02-08T04:00:57.878Z,63.10
2018-02-08T04:03:28.850Z,63.00
2018-02-08T04:06:00.623Z,62.80
2018-02-08T04:08:31.541Z,62.90
2018-02-08T04:11:03.190Z,63.50
2018-02-08T04:13:34.873Z,63.20
2018-02-08T04:16:05.726Z,63.20
2018-02-08T04:18:36.625Z,63.70
2018-02-08T04:21:08.328Z,63.10
2018-02-08T04:23:39.190Z,63.00
2018-02-08T04:26:12.791Z,62.50
2018-02-08T04:28:43.554Z,63.30
2018-02-08T04:31:15.170Z,62.20
2018-02-08T04:33:46.147Z,62.20
2018-02-08T04:36:18.081Z,63.90
2018-02-08T04:38:59.755Z,63.90
2018-02-08T04:41:41.387Z,63.00
2018-02-08T04:44:25.831Z,62.60
2018-02-08T04:49:58.930Z,61.50
2018-02-08T04:52:29.779Z,62.00
2018-02-08T04:55:01.807Z,61.30
2018-02-08T04:57:32.859Z,61.20
2018-02-08T05:00:03.841Z,60.20
2018-02-08T05:02:35.484Z,61.20
2018-02-08T05:05:07.084Z,61.10
2018-02-08T05:07:37.977Z,61.00
2018-02-08T05:10:09.632Z,60.80
2018-02-08T05:12:41.437Z,60.80
2018-02-08T05:15:13.126Z,60.70
2018-02-08T05:17:43.923Z,60.60
2018-02-08T05:20:14.526Z,59.10
2018-02-08T05:22:45.422Z,60.20
2018-02-08T05:25:16.334Z,60.00
2018-02-08T05:27:48.151Z,60.30
2018-02-08T05:30:20.718Z,59.90
2018-02-08T05:32:51.977Z,59.90
2018-02-08T05:35:23.592Z,59.30
2018-02-08T05:37:54.540Z,59.20
2018-02-08T05:40:25.315Z,58.80
2018-02-08T05:42:55.987Z,58.50
2018-02-08T05:45:26.862Z,58.30
2018-02-08T05:47:58.498Z,58.40
2018-02-08T05:50:29.385Z,58.40
2018-02-08T05:53:00.027Z,58.10
2018-02-08T05:55:30.766Z,59.30
2018-02-08T05:58:01.653Z,58.80
2018-02-08T06:00:32.539Z,58.10
2018-02-08T06:03:03.205Z,58.20
2018-02-08T06:05:33.910Z,58.10
2018-02-08T06:08:04.672Z,59.50
2018-02-08T06:10:35.427Z,59.30
2018-02-08T06:13:06.087Z,59.10
2018-02-08T06:15:36.868Z,58.90
2018-02-08T06:18:07.742Z,59.50
2018-02-08T06:20:39.533Z,58.80
2018-02-08T06:23:10.363Z,58.70
2018-02-08T06:25:41.258Z,57.50
2018-02-08T06:28:12.005Z,57.50
2018-02-08T06:30:43.739Z,57.20
2018-02-08T06:33:15.445Z,55.80
2018-02-08T06:35:46.329Z,55.80
2018-02-08T06:38:16.749Z,57.80
2018-02-08T06:40:47.402Z,57.30
2018-02-08T06:43:18.242Z,56.60
2018-02-08T06:45:49.295Z,56.30
2018-02-08T06:48:21.113Z,57.70
2018-02-08T06:50:51.947Z,57.60
2018-02-08T06:53:22.758Z,58.30
2018-02-08T06:55:54.141Z,58.50
2018-02-08T06:58:24.971Z,58.60
2018-02-08T07:00:55.807Z,58.50
2018-02-08T07:03:26.791Z,57.50
2018-02-08T07:05:58.158Z,58.50
2018-02-08T07:08:29.034Z,58.50
2018-02-08T07:10:59.890Z,58.60
2018-02-08T07:13:30.742Z,59.20
2018-02-08T07:16:02.401Z,59.60
2018-02-08T07:18:34.052Z,58.70
2018-02-08T07:21:05.675Z,59.10
2018-02-08T07:23:36.502Z,59.10
2018-02-08T07:26:07.291Z,59.00
2018-02-08T07:28:38.925Z,58.80
2018-02-08T07:31:09.545Z,58.80
2018-02-08T07:33:41.879Z,58.50
2018-02-08T07:36:12.735Z,58.40
2018-02-08T07:38:43.631Z,58.10
2018-02-08T07:41:14.486Z,58.60
2018-02-08T07:43:54.778Z,58.30
2018-02-08T07:46:25.629Z,58.10
2018-02-08T07:48:56.759Z,57.90
2018-02-08T07:51:28.776Z,58.20
2018-02-08T07:54:00.103Z,58.10
2018-02-08T07:56:31.994Z,58.20
2018-02-08T07:59:03.658Z,58.20
2018-02-08T08:01:34.835Z,58.30
2018-02-08T08:04:06.459Z,57.70
2018-02-08T08:06:37.773Z,57.70
2018-02-08T08:09:09.187Z,57.40
2018-02-08T08:11:40.040Z,57.20
2018-02-08T08:14:12.026Z,58.30
2018-02-08T08:16:43.731Z,57.70
2018-02-08T08:19:15.051Z,57.80
2018-02-08T08:21:45.982Z,57.90
2018-02-08T08:24:16.890Z,57.90
2018-02-08T08:26:48.937Z,57.80
2018-02-08T08:29:19.708Z,57.70
2018-02-08T08:31:50.657Z,57.70
2018-02-08T08:34:21.543Z,57.20
2018-02-08T08:36:52.405Z,57.30
2018-02-08T08:39:24.077Z,57.80
2018-02-08T08:41:56.502Z,57.80
2018-02-08T08:44:27.210Z,57.90
2018-02-08T08:46:58.003Z,57.90
2018-02-08T08:49:29.648Z,57.20
2018-02-08T08:52:00.814Z,57.80
2018-02-08T08:54:31.738Z,57.60
2018-02-08T08:57:03.278Z,58.00
2018-02-08T08:59:34.247Z,58.00
2018-02-08T09:02:05.122Z,57.50
2018-02-08T09:04:35.976Z,56.90
2018-02-08T09:07:06.791Z,56.70
2018-02-08T09:09:37.737Z,57.00
2018-02-08T09:12:08.715Z,57.30
2018-02-08T09:14:40.270Z,56.00
2018-02-08T09:17:12.852Z,55.90
2018-02-08T09:19:43.858Z,55.80
2018-02-08T09:22:14.791Z,56.70
2018-02-08T09:24:45.617Z,56.10
2018-02-08T09:27:16.565Z,56.20
2018-02-08T09:29:47.361Z,56.30
2018-02-08T09:32:19.120Z,56.00
2018-02-08T09:34:49.957Z,55.90
2018-02-08T09:37:21.002Z,55.60
2018-02-08T09:39:51.975Z,55.50
2018-02-08T09:42:22.846Z,55.70
2018-02-08T09:44:54.615Z,55.00
2018-02-08T09:47:26.398Z,55.40
2018-02-08T09:49:57.393Z,55.40
2018-02-08T09:52:28.368Z,55.00
2018-02-08T09:54:59.188Z,54.90
2018-02-08T09:57:30.906Z,54.70
2018-02-08T10:00:01.681Z,54.70
2018-02-08T10:02:32.786Z,54.30
2018-02-08T10:05:03.552Z,54.30
2018-02-08T10:07:34.994Z,54.80
2018-02-08T10:10:06.785Z,54.60
2018-02-08T10:12:37.793Z,54.60
2018-02-08T10:15:09.572Z,54.00
2018-02-08T10:17:40.593Z,53.90
2018-02-08T10:20:12.172Z,53.80
2018-02-08T10:22:42.909Z,53.80
2018-02-08T10:25:13.933Z,53.90
2018-02-08T10:27:45.408Z,54.40
2018-02-08T10:30:16.763Z,54.40
2018-02-08T10:32:47.721Z,54.70
2018-02-08T10:35:18.426Z,54.20
2018-02-08T10:37:49.357Z,54.00
2018-02-08T10:40:20.139Z,53.60
2018-02-08T10:42:50.990Z,54.00
2018-02-08T10:45:21.879Z,54.40
2018-02-08T10:47:52.835Z,54.20
2018-02-08T10:50:24.442Z,54.80
2018-02-08T10:52:55.946Z,55.00
2018-02-08T10:55:26.906Z,54.90
2018-02-08T10:57:57.700Z,54.90
2018-02-08T11:00:29.012Z,55.20
2018-02-08T11:03:00.636Z,55.50
2018-02-08T11:05:32.198Z,55.50
2018-02-08T11:08:03.438Z,55.40
2018-02-08T11:10:34.106Z,55.80
2018-02-08T11:13:05.725Z,56.50
2018-02-08T11:15:36.849Z,56.50
2018-02-08T11:18:07.450Z,56.60
2018-02-08T11:20:38.444Z,56.60
2018-02-08T11:23:09.336Z,56.50
2018-02-08T11:25:40.376Z,56.60
2018-02-08T11:28:11.115Z,56.90
2018-02-08T11:30:42.129Z,57.00
2018-02-08T11:33:12.691Z,56.90
2018-02-08T11:35:44.103Z,57.00
2018-02-08T11:38:15.973Z,57.80
2018-02-08T11:40:46.932Z,57.80
2018-02-08T11:43:18.379Z,57.60
2018-02-08T11:45:49.557Z,57.10
2018-02-08T11:48:20.325Z,57.10
2018-02-08T11:50:51.953Z,56.80
2018-02-08T11:53:22.750Z,56.80
2018-02-08T11:55:53.752Z,57.00
2018-02-08T11:58:25.285Z,57.50
2018-02-08T12:00:56.060Z,57.50
2018-02-08T12:03:27.195Z,58.20
2018-02-08T12:05:59.087Z,57.20
2018-02-08T12:08:30.116Z,57.10
2018-02-08T12:11:01.232Z,57.40
2018-02-08T12:13:32.887Z,57.70
2018-02-08T12:16:04.639Z,57.80
2018-02-08T12:18:36.405Z,58.40
2018-02-08T12:21:08.153Z,59.20
2018-02-08T12:23:39.997Z,59.30
2018-02-08T12:26:10.851Z,59.20
2018-02-08T12:28:42.619Z,58.70
2018-02-08T12:31:14.598Z,58.90
2018-02-08T12:33:45.512Z,58.80
2018-02-08T12:36:17.208Z,58.40
2018-02-08T12:38:48.207Z,58.40
2018-02-08T12:41:19.750Z,58.40
2018-02-08T12:43:51.623Z,58.30
2018-02-08T12:46:23.506Z,59.40
2018-02-08T12:48:54.517Z,59.30
2018-02-08T12:51:26.195Z,59.60
2018-02-08T12:53:57.125Z,59.60
2018-02-08T12:56:28.814Z,59.50
2018-02-08T12:58:59.863Z,59.50
2018-02-08T13:01:33.193Z,59.20
2018-02-08T13:04:04.157Z,59.10
2018-02-08T13:06:36.153Z,58.50
2018-02-08T13:09:07.226Z,58.40
2018-02-08T13:11:37.883Z,58.50
2018-02-08T13:14:09.149Z,58.20
2018-02-08T13:16:40.585Z,58.20
2018-02-08T13:19:13.698Z,58.60
2018-02-08T13:21:44.607Z,58.60
2018-02-08T13:24:16.203Z,60.60
2018-02-08T13:26:47.051Z,60.20
2018-02-08T13:29:17.929Z,61.00
2018-02-08T13:31:51.025Z,62.80
2018-02-08T13:34:23.017Z,63.60
2018-02-08T13:36:55.835Z,63.50
2018-02-08T13:39:26.789Z,64.40
2018-02-08T13:41:58.015Z,64.60
2018-02-08T13:44:28.671Z,64.60
2018-02-08T13:46:59.754Z,65.30
2018-02-08T13:49:45.722Z,65.60
2018-02-08T13:52:23.231Z,66.40
2018-02-08T13:54:59.719Z,66.40
2018-02-08T13:57:31.985Z,66.30
2018-02-08T14:00:09.991Z,66.50
2018-02-08T14:02:41.285Z,66.70
2018-02-08T14:05:12.240Z,66.60
2018-02-08T14:07:43.767Z,66.60
2018-02-08T14:10:15.116Z,66.60
2018-02-08T14:12:46.129Z,66.80
2018-02-08T14:15:17.058Z,66.90
2018-02-08T14:17:47.966Z,67.30
2018-02-08T14:20:19.929Z,68.50
2018-02-08T14:22:51.593Z,68.90
2018-02-08T14:25:23.744Z,69.20
2018-02-08T14:27:55.682Z,69.40
2018-02-08T14:30:28.390Z,69.30
2018-02-08T14:33:00.350Z,68.90
2018-02-08T14:35:32.608Z,69.30
2018-02-08T14:38:03.561Z,69.20
2018-02-08T14:40:35.790Z,69.40
2018-02-08T14:43:06.849Z,69.30
2018-02-08T14:45:37.811Z,69.20
2018-02-08T14:48:10.135Z,69.30
2018-02-08T14:50:42.035Z,69.30
2018-02-08T14:53:14.490Z,70.60
2018-02-08T14:55:45.555Z,70.20
2018-02-08T14:58:17.882Z,70.60
2018-02-08T15:00:48.981Z,70.60
2018-02-08T15:03:20.844Z,71.80
2018-02-08T15:05:52.674Z,71.80
2018-02-08T15:08:23.666Z,71.80
2018-02-08T15:10:54.659Z,72.10
2018-02-08T15:13:25.598Z,71.70
2018-02-08T15:15:56.843Z,71.00
2018-02-08T15:18:28.051Z,71.20
2018-02-08T15:20:59.157Z,70.50
2018-02-08T15:23:30.168Z,71.30
2018-02-08T15:26:01.034Z,70.50
2018-02-08T15:28:32.367Z,71.40
2018-02-08T15:31:04.580Z,74.10
2018-02-08T15:33:35.633Z,74.10
2018-02-08T15:36:06.816Z,74.50
2018-02-08T15:38:39.742Z,74.90
2018-02-08T15:41:12.054Z,74.90
2018-02-08T15:43:43.154Z,73.80
2018-02-08T15:46:14.310Z,73.50
2018-02-08T15:48:45.506Z,72.20
2018-02-08T15:51:17.367Z,72.20
2018-02-08T15:53:49.459Z,72.20
2018-02-08T15:56:20.590Z,72.10
2018-02-08T15:58:51.802Z,72.20
2018-02-08T16:01:23.206Z,73.00
2018-02-08T16:03:54.349Z,72.80
2018-02-08T16:06:25.377Z,71.80
2018-02-08T16:08:56.278Z,71.20
2018-02-08T16:11:27.236Z,71.60
2018-02-08T16:13:59.206Z,71.00
2018-02-08T16:16:31.388Z,70.10
2018-02-08T16:19:02.313Z,70.00
2018-02-08T16:21:33.223Z,70.90
2018-02-08T16:24:05.722Z,71.00
2018-02-08T16:26:37.546Z,72.20
2018-02-08T16:29:08.753Z,72.20
2018-02-08T16:31:39.610Z,72.30
2018-02-08T16:34:10.882Z,72.30
2018-02-08T16:36:41.743Z,72.10
2018-02-08T16:39:13.410Z,71.20
2018-02-08T16:41:44.370Z,71.10
2018-02-08T16:44:15.770Z,71.10
2018-02-08T16:46:46.774Z,71.60
2018-02-08T16:49:17.696Z,71.80
2018-02-08T16:51:48.494Z,72.40
2018-02-08T16:54:20.068Z,73.10
2018-02-08T16:56:51.131Z,73.00
2018-02-08T16:59:22.316Z,73.50
2018-02-08T17:01:54.102Z,73.50
2018-02-08T17:04:25.887Z,73.60
2018-02-08T17:06:56.952Z,73.50
2018-02-08T17:09:28.225Z,73.30
2018-02-08T17:11:59.909Z,72.70
2018-02-08T17:14:30.854Z,72.70
2018-02-08T17:17:01.967Z,72.90
2018-02-08T17:19:33.840Z,73.90
2018-02-08T17:22:05.677Z,73.80
2018-02-08T17:24:36.541Z,73.70
2018-02-08T17:27:07.460Z,73.60
2018-02-08T17:29:38.270Z,73.30
2018-02-08T17:32:09.050Z,73.50
2018-02-08T17:34:39.835Z,74.00
2018-02-08T17:37:10.865Z,74.90
2018-02-08T17:39:41.575Z,74.50
2018-02-08T17:42:12.375Z,75.10
2018-02-08T17:44:43.087Z,74.80
2018-02-08T17:47:13.877Z,75.30
2018-02-08T17:49:44.682Z,75.10
2018-02-08T17:52:16.462Z,75.00
2018-02-08T17:54:47.782Z,75.80
2018-02-08T17:57:18.544Z,75.70
2018-02-08T17:59:50.302Z,76.30
2018-02-08T18:02:21.963Z,76.10
2018-02-08T18:04:52.897Z,76.10
2018-02-08T18:07:24.613Z,76.30
2018-02-08T18:09:55.374Z,76.80
2018-02-08T18:12:27.013Z,77.20
2018-02-08T18:14:58.001Z,77.10
2018-02-08T18:17:29.010Z,77.40
2018-02-08T18:20:00.398Z,76.40
2018-02-08T18:22:31.916Z,76.10
2018-02-08T18:25:03.849Z,76.80
2018-02-08T18:27:35.548Z,76.70
2018-02-08T18:30:06.478Z,76.50
2018-02-08T18:32:38.245Z,77.70
2018-02-08T18:35:09.199Z,76.90
2018-02-08T18:37:40.089Z,77.20
2018-02-08T18:40:11.649Z,76.30
2018-02-08T18:42:42.484Z,76.80
2018-02-08T18:45:14.240Z,76.70
2018-02-08T18:47:45.063Z,76.70
2018-02-08T18:50:15.742Z,76.30
2018-02-08T18:52:46.654Z,76.30
2018-02-08T18:55:18.406Z,76.10
2018-02-08T18:57:50.800Z,76.00
2018-02-08T19:00:22.518Z,76.30
2018-02-08T19:02:53.382Z,76.30
2018-02-08T19:05:25.135Z,76.90
2018-02-08T19:07:57.079Z,77.00
2018-02-08T19:10:28.219Z,76.90
2018-02-08T19:12:59.470Z,76.30
2018-02-08T19:15:30.138Z,77.00
2018-02-08T19:18:01.913Z,75.60
2018-02-08T19:20:32.846Z,75.50
2018-02-08T19:23:03.753Z,76.50
2018-02-08T19:25:35.413Z,77.50
2018-02-08T19:28:07.018Z,76.40
2018-02-08T19:30:37.846Z,76.40
2018-02-08T19:33:08.645Z,75.60
2018-02-08T19:35:41.110Z,74.90
2018-02-08T19:38:12.770Z,74.10
2018-02-08T19:40:44.518Z,73.20
2018-02-08T19:43:15.981Z,74.00
2018-02-08T19:45:47.726Z,73.60
2018-02-08T19:48:19.369Z,73.60
2018-02-08T19:50:52.198Z,73.60
2018-02-08T19:53:23.121Z,73.80
2018-02-08T19:55:54.742Z,72.80
2018-02-08T19:58:25.599Z,72.80
2018-02-08T20:00:57.062Z,72.80
2018-02-08T20:03:28.803Z,72.50
2018-02-08T20:05:59.639Z,72.50
2018-02-08T20:08:30.582Z,73.80
2018-02-08T20:11:02.234Z,73.40
2018-02-08T20:13:34.010Z,74.80
2018-02-08T20:16:04.733Z,74.20
2018-02-08T20:18:36.252Z,75.20
2018-02-08T20:21:07.190Z,75.20
2018-02-08T20:23:37.843Z,75.50
2018-02-08T20:26:08.742Z,76.40
2018-02-08T20:28:39.658Z,75.50
2018-02-08T20:31:15.209Z,75.40
2018-02-08T20:33:47.074Z,75.20
2018-02-08T20:36:17.849Z,74.30
2018-02-08T20:38:48.795Z,75.10
2018-02-08T20:41:19.791Z,74.30
2018-02-08T20:43:50.609Z,75.10
2018-02-08T20:46:21.542Z,74.80
2018-02-08T20:48:52.329Z,74.10
2018-02-08T20:51:23.137Z,72.30
2018-02-08T20:53:53.764Z,73.30
2018-02-08T20:56:24.425Z,72.90
2018-02-08T20:58:55.282Z,73.20
2018-02-08T21:01:26.019Z,72.00
2018-02-08T21:03:57.549Z,73.50
2018-02-08T21:06:28.364Z,73.50
2018-02-08T21:08:59.077Z,74.10
2018-02-08T21:11:29.623Z,74.70
2018-02-08T21:14:00.338Z,73.80
2018-02-08T21:16:30.921Z,73.50
2018-02-08T21:19:01.758Z,72.40
2018-02-08T21:21:33.392Z,72.80
2018-02-08T21:24:04.326Z,72.80
2018-02-08T21:26:35.174Z,73.20
2018-02-08T21:29:06.002Z,73.20
2018-02-08T21:31:36.840Z,72.50
2018-02-08T21:34:07.680Z,71.70
2018-02-08T21:36:38.506Z,71.60
2018-02-08T21:39:09.329Z,72.40
2018-02-08T21:41:40.197Z,73.20
2018-02-08T21:44:10.990Z,73.60
2018-02-08T21:46:42.021Z,73.50
2018-02-08T21:49:12.995Z,74.30
2018-02-08T21:51:44.015Z,74.40
2018-02-08T21:54:15.168Z,73.90
2018-02-08T21:56:46.097Z,73.10
2018-02-08T21:59:16.822Z,73.10
2018-02-08T22:01:47.542Z,74.10
2018-02-08T22:04:19.085Z,74.00
2018-02-08T22:06:50.592Z,74.10
2018-02-08T22:09:21.573Z,74.10
2018-02-08T22:11:52.275Z,73.90
2018-02-08T22:14:23.111Z,74.80
2018-02-08T22:16:53.742Z,75.90
2018-02-08T22:19:24.599Z,76.40
2018-02-08T22:21:55.219Z,75.80
2018-02-08T22:24:25.865Z,76.80
2018-02-08T22:26:57.414Z,75.30
2018-02-08T22:29:28.214Z,75.30
2018-02-08T22:31:59.006Z,75.50
2018-02-08T22:34:30.706Z,76.00
2018-02-08T22:37:01.543Z,76.00
2018-02-08T22:39:32.239Z,76.30
2018-02-08T22:42:03.952Z,76.40
2018-02-08T22:44:35.680Z,76.70
2018-02-08T22:47:06.654Z,76.60
2018-02-08T22:49:37.473Z,77.40
2018-02-08T22:52:08.301Z,77.10
2018-02-08T22:54:38.734Z,76.20
2018-02-08T22:57:09.486Z,76.70
2018-02-08T22:59:40.334Z,78.30
2018-02-08T23:02:12.825Z,78.60
2018-02-08T23:04:44.617Z,78.90
2018-02-08T23:07:15.406Z,78.80
2018-02-08T23:09:46.241Z,78.80
2018-02-08T23:12:17.062Z,78.10
2018-02-08T23:14:47.807Z,79.50
2018-02-08T23:17:18.189Z,79.40
2018-02-08T23:19:49.039Z,79.80
2018-02-08T23:22:19.781Z,79.70
2018-02-08T23:24:50.559Z,80.10
2018-02-08T23:27:22.272Z,80.00
2018-02-08T23:29:53.326Z,80.00
2018-02-08T23:32:24.151Z,79.80
2018-02-08T23:34:54.982Z,80.20
2018-02-08T23:37:25.930Z,80.10
2018-02-08T23:39:56.640Z,79.40
2018-02-08T23:42:27.609Z,78.80
2018-02-08T23:44:58.252Z,78.40
2018-02-08T23:47:29.008Z,77.50
2018-02-08T23:50:00.638Z,76.70
2018-02-08T23:52:31.551Z,76.60
2018-02-08T23:55:02.428Z,76.70
2018-02-08T23:57:33.959Z,77.60
